sensor_id;sensor_type;location;lat;lon;timestamp;P1;durP1;ratioP1;P2;durP2;ratioP2
16385;SDS011;8302;51.154;4.456;2024-02-15T00:01:25;10.55;;;3.55;;
16385;SDS011;8302;51.154;4.456;2024-02-15T00:03:53;9.65;;;3.63;;
16385;SDS011;8302;51.154;4.456;2024-02-15T00:06:21;10.63;;;4.55;;
16385;SDS011;8302;51.154;4.456;2024-02-15T00:08:49;10.95;;;3.58;;
16385;SDS011;8302;51.154;4.456;2024-02-15T00:11:18;8.75;;;3.15;;
16385;SDS011;8302;51.154;4.456;2024-02-15T00:13:47;11.55;;;3.75;;
16385;SDS011;8302;51.154;4.456;2024-02-15T00:16:15;7.28;;;2.95;;
16385;SDS011;8302;51.154;4.456;2024-02-15T00:18:43;6.10;;;3.13;;
16385;SDS011;8302;51.154;4.456;2024-02-15T00:21:11;10.20;;;4.03;;
16385;SDS011;8302;51.154;4.456;2024-02-15T00:23:41;8.70;;;3.67;;
16385;SDS011;8302;51.154;4.456;2024-02-15T00:26:08;10.65;;;3.45;;
16385;SDS011;8302;51.154;4.456;2024-02-15T00:28:38;10.73;;;3.20;;
16385;SDS011;8302;51.154;4.456;2024-02-15T00:31:09;8.45;;;3.92;;
16385;SDS011;8302;51.154;4.456;2024-02-15T00:33:37;7.13;;;2.80;;
16385;SDS011;8302;51.154;4.456;2024-02-15T00:36:06;17.13;;;3.97;;
16385;SDS011;8302;51.154;4.456;2024-02-15T00:38:34;8.18;;;3.67;;
16385;SDS011;8302;51.154;4.456;2024-02-15T00:41:02;8.38;;;3.25;;
16385;SDS011;8302;51.154;4.456;2024-02-15T00:43:30;12.07;;;3.92;;
16385;SDS011;8302;51.154;4.456;2024-02-15T00:46:01;8.98;;;3.50;;
16385;SDS011;8302;51.154;4.456;2024-02-15T00:48:30;8.65;;;3.45;;
16385;SDS011;8302;51.154;4.456;2024-02-15T00:50:58;11.38;;;3.53;;
16385;SDS011;8302;51.154;4.456;2024-02-15T00:53:26;7.15;;;3.00;;
16385;SDS011;8302;51.154;4.456;2024-02-15T00:55:55;10.35;;;4.00;;
16385;SDS011;8302;51.154;4.456;2024-02-15T00:58:22;10.70;;;3.25;;
16385;SDS011;8302;51.154;4.456;2024-02-15T01:00:50;12.52;;;3.67;;
16385;SDS011;8302;51.154;4.456;2024-02-15T01:03:18;13.23;;;3.33;;
16385;SDS011;8302;51.154;4.456;2024-02-15T01:05:48;10.23;;;2.97;;
16385;SDS011;8302;51.154;4.456;2024-02-15T01:08:16;6.43;;;3.10;;
16385;SDS011;8302;51.154;4.456;2024-02-15T01:10:43;9.23;;;3.65;;
16385;SDS011;8302;51.154;4.456;2024-02-15T01:13:12;14.27;;;4.20;;
16385;SDS011;8302;51.154;4.456;2024-02-15T01:15:40;7.72;;;3.75;;
16385;SDS011;8302;51.154;4.456;2024-02-15T01:18:07;9.93;;;3.35;;
16385;SDS011;8302;51.154;4.456;2024-02-15T01:20:35;8.18;;;3.28;;
16385;SDS011;8302;51.154;4.456;2024-02-15T01:23:05;10.02;;;3.97;;
16385;SDS011;8302;51.154;4.456;2024-02-15T01:25:34;9.38;;;2.67;;
16385;SDS011;8302;51.154;4.456;2024-02-15T01:28:02;10.73;;;3.28;;
16385;SDS011;8302;51.154;4.456;2024-02-15T01:30:30;11.57;;;3.53;;
16385;SDS011;8302;51.154;4.456;2024-02-15T01:32:58;8.07;;;3.45;;
16385;SDS011;8302;51.154;4.456;2024-02-15T01:35:26;12.38;;;3.67;;
16385;SDS011;8302;51.154;4.456;2024-02-15T01:37:55;11.10;;;3.65;;
16385;SDS011;8302;51.154;4.456;2024-02-15T01:40:24;10.35;;;3.95;;
16385;SDS011;8302;51.154;4.456;2024-02-15T01:42:52;9.20;;;3.17;;
16385;SDS011;8302;51.154;4.456;2024-02-15T01:45:21;11.38;;;3.40;;
16385;SDS011;8302;51.154;4.456;2024-02-15T01:47:49;9.60;;;3.25;;
16385;SDS011;8302;51.154;4.456;2024-02-15T01:50:17;10.65;;;3.45;;
16385;SDS011;8302;51.154;4.456;2024-02-15T01:52:46;11.50;;;4.30;;
16385;SDS011;8302;51.154;4.456;2024-02-15T01:55:14;12.13;;;4.18;;
16385;SDS011;8302;51.154;4.456;2024-02-15T01:57:44;12.77;;;3.70;;
16385;SDS011;8302;51.154;4.456;2024-02-15T02:00:14;7.13;;;2.80;;
16385;SDS011;8302;51.154;4.456;2024-02-15T02:02:43;10.07;;;3.15;;
16385;SDS011;8302;51.154;4.456;2024-02-15T02:05:11;8.20;;;2.70;;
16385;SDS011;8302;51.154;4.456;2024-02-15T02:07:39;6.45;;;2.88;;
16385;SDS011;8302;51.154;4.456;2024-02-15T02:10:08;6.90;;;2.55;;
16385;SDS011;8302;51.154;4.456;2024-02-15T02:12:37;6.60;;;2.40;;
16385;SDS011;8302;51.154;4.456;2024-02-15T02:15:07;8.15;;;2.75;;
16385;SDS011;8302;51.154;4.456;2024-02-15T02:17:37;6.60;;;2.78;;
16385;SDS011;8302;51.154;4.456;2024-02-15T02:20:07;7.90;;;2.58;;
16385;SDS011;8302;51.154;4.456;2024-02-15T02:22:37;9.43;;;3.20;;
16385;SDS011;8302;51.154;4.456;2024-02-15T02:25:07;6.80;;;2.80;;
16385;SDS011;8302;51.154;4.456;2024-02-15T02:27:35;11.00;;;2.67;;
16385;SDS011;8302;51.154;4.456;2024-02-15T02:30:03;7.60;;;3.42;;
16385;SDS011;8302;51.154;4.456;2024-02-15T02:32:33;7.50;;;2.45;;
16385;SDS011;8302;51.154;4.456;2024-02-15T02:35:02;6.25;;;2.58;;
16385;SDS011;8302;51.154;4.456;2024-02-15T02:37:33;6.05;;;2.45;;
16385;SDS011;8302;51.154;4.456;2024-02-15T02:40:03;6.82;;;2.67;;
16385;SDS011;8302;51.154;4.456;2024-02-15T02:42:32;7.43;;;2.88;;
16385;SDS011;8302;51.154;4.456;2024-02-15T02:45:00;12.48;;;2.78;;
16385;SDS011;8302;51.154;4.456;2024-02-15T02:47:28;7.40;;;2.67;;
16385;SDS011;8302;51.154;4.456;2024-02-15T02:49:56;10.13;;;2.80;;
16385;SDS011;8302;51.154;4.456;2024-02-15T02:52:24;6.13;;;2.45;;
16385;SDS011;8302;51.154;4.456;2024-02-15T02:54:51;8.63;;;2.83;;
16385;SDS011;8302;51.154;4.456;2024-02-15T02:57:19;7.18;;;2.65;;
16385;SDS011;8302;51.154;4.456;2024-02-15T02:59:49;6.85;;;2.30;;
16385;SDS011;8302;51.154;4.456;2024-02-15T03:02:17;8.73;;;2.38;;
16385;SDS011;8302;51.154;4.456;2024-02-15T03:04:44;9.30;;;3.95;;
16385;SDS011;8302;51.154;4.456;2024-02-15T03:07:12;7.82;;;2.38;;
16385;SDS011;8302;51.154;4.456;2024-02-15T03:09:43;9.38;;;2.83;;
16385;SDS011;8302;51.154;4.456;2024-02-15T03:12:11;7.47;;;2.70;;
16385;SDS011;8302;51.154;4.456;2024-02-15T03:14:39;5.70;;;2.15;;
16385;SDS011;8302;51.154;4.456;2024-02-15T03:17:09;6.13;;;2.20;;
16385;SDS011;8302;51.154;4.456;2024-02-15T03:19:37;6.88;;;2.55;;
16385;SDS011;8302;51.154;4.456;2024-02-15T03:22:03;5.07;;;2.13;;
16385;SDS011;8302;51.154;4.456;2024-02-15T03:24:32;6.47;;;2.55;;
16385;SDS011;8302;51.154;4.456;2024-02-15T03:27:00;7.93;;;2.42;;
16385;SDS011;8302;51.154;4.456;2024-02-15T03:29:27;8.23;;;2.78;;
16385;SDS011;8302;51.154;4.456;2024-02-15T03:31:56;9.18;;;2.60;;
16385;SDS011;8302;51.154;4.456;2024-02-15T03:34:25;7.45;;;2.30;;
16385;SDS011;8302;51.154;4.456;2024-02-15T03:36:53;6.28;;;2.40;;
16385;SDS011;8302;51.154;4.456;2024-02-15T03:39:21;6.55;;;2.47;;
16385;SDS011;8302;51.154;4.456;2024-02-15T03:41:50;6.82;;;2.40;;
16385;SDS011;8302;51.154;4.456;2024-02-15T03:44:18;6.72;;;2.80;;
16385;SDS011;8302;51.154;4.456;2024-02-15T03:46:46;3.22;;;1.33;;
16385;SDS011;8302;51.154;4.456;2024-02-15T03:49:17;7.35;;;2.60;;
16385;SDS011;8302;51.154;4.456;2024-02-15T03:51:47;5.78;;;2.50;;
16385;SDS011;8302;51.154;4.456;2024-02-15T03:54:15;11.27;;;1.90;;
16385;SDS011;8302;51.154;4.456;2024-02-15T03:56:46;6.13;;;1.70;;
16385;SDS011;8302;51.154;4.456;2024-02-15T03:59:18;10.15;;;2.28;;
16385;SDS011;8302;51.154;4.456;2024-02-15T04:01:48;11.68;;;3.10;;
16385;SDS011;8302;51.154;4.456;2024-02-15T04:04:15;5.65;;;2.63;;
16385;SDS011;8302;51.154;4.456;2024-02-15T04:06:43;6.68;;;3.00;;
16385;SDS011;8302;51.154;4.456;2024-02-15T04:09:12;4.50;;;2.28;;
16385;SDS011;8302;51.154;4.456;2024-02-15T04:11:40;8.05;;;2.83;;
16385;SDS011;8302;51.154;4.456;2024-02-15T04:14:08;6.97;;;2.80;;
16385;SDS011;8302;51.154;4.456;2024-02-15T04:16:36;8.20;;;2.08;;
16385;SDS011;8302;51.154;4.456;2024-02-15T04:19:04;9.45;;;3.20;;
16385;SDS011;8302;51.154;4.456;2024-02-15T04:21:32;4.97;;;1.98;;
16385;SDS011;8302;51.154;4.456;2024-02-15T04:24:00;5.68;;;2.50;;
16385;SDS011;8302;51.154;4.456;2024-02-15T04:26:29;6.05;;;2.67;;
16385;SDS011;8302;51.154;4.456;2024-02-15T04:28:58;6.50;;;2.40;;
16385;SDS011;8302;51.154;4.456;2024-02-15T04:31:26;6.68;;;2.17;;
16385;SDS011;8302;51.154;4.456;2024-02-15T04:33:54;7.45;;;2.78;;
16385;SDS011;8302;51.154;4.456;2024-02-15T04:36:22;6.13;;;2.53;;
16385;SDS011;8302;51.154;4.456;2024-02-15T04:38:51;7.05;;;2.42;;
16385;SDS011;8302;51.154;4.456;2024-02-15T04:41:19;7.95;;;2.85;;
16385;SDS011;8302;51.154;4.456;2024-02-15T04:43:51;6.32;;;2.78;;
16385;SDS011;8302;51.154;4.456;2024-02-15T04:46:19;5.63;;;2.55;;
16385;SDS011;8302;51.154;4.456;2024-02-15T04:48:48;3.45;;;1.45;;
16385;SDS011;8302;51.154;4.456;2024-02-15T04:51:17;5.47;;;1.90;;
16385;SDS011;8302;51.154;4.456;2024-02-15T04:53:46;3.95;;;2.70;;
16385;SDS011;8302;51.154;4.456;2024-02-15T04:56:14;6.95;;;2.45;;
16385;SDS011;8302;51.154;4.456;2024-02-15T04:58:43;6.93;;;2.67;;
16385;SDS011;8302;51.154;4.456;2024-02-15T05:01:16;8.02;;;2.70;;
16385;SDS011;8302;51.154;4.456;2024-02-15T05:03:44;7.60;;;2.72;;
16385;SDS011;8302;51.154;4.456;2024-02-15T05:06:11;7.25;;;2.63;;
16385;SDS011;8302;51.154;4.456;2024-02-15T05:08:40;7.55;;;2.65;;
16385;SDS011;8302;51.154;4.456;2024-02-15T05:11:10;9.18;;;3.40;;
16385;SDS011;8302;51.154;4.456;2024-02-15T05:13:43;6.85;;;2.30;;
16385;SDS011;8302;51.154;4.456;2024-02-15T05:16:11;5.20;;;2.70;;
16385;SDS011;8302;51.154;4.456;2024-02-15T05:18:41;5.78;;;2.60;;
16385;SDS011;8302;51.154;4.456;2024-02-15T05:21:09;5.68;;;2.40;;
16385;SDS011;8302;51.154;4.456;2024-02-15T05:23:37;5.00;;;2.17;;
16385;SDS011;8302;51.154;4.456;2024-02-15T05:26:06;7.05;;;2.30;;
16385;SDS011;8302;51.154;4.456;2024-02-15T05:28:34;5.28;;;2.38;;
16385;SDS011;8302;51.154;4.456;2024-02-15T05:31:08;3.83;;;2.22;;
16385;SDS011;8302;51.154;4.456;2024-02-15T05:33:36;6.55;;;2.55;;
16385;SDS011;8302;51.154;4.456;2024-02-15T05:36:07;4.28;;;2.42;;
16385;SDS011;8302;51.154;4.456;2024-02-15T05:38:35;8.82;;;2.55;;
16385;SDS011;8302;51.154;4.456;2024-02-15T05:41:03;5.05;;;2.33;;
16385;SDS011;8302;51.154;4.456;2024-02-15T05:43:30;7.18;;;2.50;;
16385;SDS011;8302;51.154;4.456;2024-02-15T05:46:00;5.65;;;2.47;;
16385;SDS011;8302;51.154;4.456;2024-02-15T05:48:28;7.45;;;2.65;;
16385;SDS011;8302;51.154;4.456;2024-02-15T05:50:56;6.25;;;2.67;;
16385;SDS011;8302;51.154;4.456;2024-02-15T05:53:28;5.20;;;2.60;;
16385;SDS011;8302;51.154;4.456;2024-02-15T05:55:56;4.03;;;2.58;;
16385;SDS011;8302;51.154;4.456;2024-02-15T05:58:25;6.82;;;2.50;;
16385;SDS011;8302;51.154;4.456;2024-02-15T06:00:52;7.90;;;3.13;;
16385;SDS011;8302;51.154;4.456;2024-02-15T06:03:21;6.88;;;2.78;;
16385;SDS011;8302;51.154;4.456;2024-02-15T06:05:53;8.60;;;3.13;;
16385;SDS011;8302;51.154;4.456;2024-02-15T06:08:25;6.45;;;2.65;;
16385;SDS011;8302;51.154;4.456;2024-02-15T06:10:54;8.80;;;3.00;;
16385;SDS011;8302;51.154;4.456;2024-02-15T06:13:21;6.95;;;2.80;;
16385;SDS011;8302;51.154;4.456;2024-02-15T06:15:49;6.72;;;2.65;;
16385;SDS011;8302;51.154;4.456;2024-02-15T06:18:20;4.63;;;2.40;;
16385;SDS011;8302;51.154;4.456;2024-02-15T06:20:51;6.95;;;3.30;;
16385;SDS011;8302;51.154;4.456;2024-02-15T06:23:22;6.63;;;2.80;;
16385;SDS011;8302;51.154;4.456;2024-02-15T06:25:51;4.53;;;2.63;;
16385;SDS011;8302;51.154;4.456;2024-02-15T06:28:21;5.88;;;2.40;;
16385;SDS011;8302;51.154;4.456;2024-02-15T06:31:03;3.88;;;2.20;;
16385;SDS011;8302;51.154;4.456;2024-02-15T06:33:48;5.88;;;2.80;;
16385;SDS011;8302;51.154;4.456;2024-02-15T06:36:33;5.32;;;2.40;;
16385;SDS011;8302;51.154;4.456;2024-02-15T06:39:19;6.25;;;2.90;;
16385;SDS011;8302;51.154;4.456;2024-02-15T06:42:06;6.95;;;2.20;;
16385;SDS011;8302;51.154;4.456;2024-02-15T06:44:35;8.55;;;2.85;;
16385;SDS011;8302;51.154;4.456;2024-02-15T06:47:03;6.45;;;2.33;;
16385;SDS011;8302;51.154;4.456;2024-02-15T06:49:31;7.28;;;2.47;;
16385;SDS011;8302;51.154;4.456;2024-02-15T06:51:59;7.35;;;2.58;;
16385;SDS011;8302;51.154;4.456;2024-02-15T06:54:28;6.95;;;3.20;;
16385;SDS011;8302;51.154;4.456;2024-02-15T06:56:56;7.25;;;2.90;;
16385;SDS011;8302;51.154;4.456;2024-02-15T06:59:24;6.35;;;2.80;;
16385;SDS011;8302;51.154;4.456;2024-02-15T07:01:53;8.50;;;2.40;;
16385;SDS011;8302;51.154;4.456;2024-02-15T07:04:21;10.02;;;2.45;;
16385;SDS011;8302;51.154;4.456;2024-02-15T07:06:52;9.52;;;2.50;;
16385;SDS011;8302;51.154;4.456;2024-02-15T07:09:21;6.38;;;2.65;;
16385;SDS011;8302;51.154;4.456;2024-02-15T07:11:51;4.82;;;2.22;;
16385;SDS011;8302;51.154;4.456;2024-02-15T07:14:19;8.15;;;2.78;;
16385;SDS011;8302;51.154;4.456;2024-02-15T07:16:47;7.57;;;2.20;;
16385;SDS011;8302;51.154;4.456;2024-02-15T07:19:17;6.18;;;2.38;;
16385;SDS011;8302;51.154;4.456;2024-02-15T07:21:45;7.85;;;2.25;;
16385;SDS011;8302;51.154;4.456;2024-02-15T07:24:13;5.78;;;2.65;;
16385;SDS011;8302;51.154;4.456;2024-02-15T07:26:41;8.23;;;1.80;;
16385;SDS011;8302;51.154;4.456;2024-02-15T07:29:09;5.82;;;2.08;;
16385;SDS011;8302;51.154;4.456;2024-02-15T07:31:37;7.43;;;2.10;;
16385;SDS011;8302;51.154;4.456;2024-02-15T07:34:05;5.40;;;2.15;;
16385;SDS011;8302;51.154;4.456;2024-02-15T07:36:34;7.20;;;2.55;;
16385;SDS011;8302;51.154;4.456;2024-02-15T07:39:03;5.38;;;1.80;;
16385;SDS011;8302;51.154;4.456;2024-02-15T07:41:31;8.05;;;2.20;;
16385;SDS011;8302;51.154;4.456;2024-02-15T07:44:00;5.25;;;2.03;;
16385;SDS011;8302;51.154;4.456;2024-02-15T07:46:28;5.15;;;2.40;;
16385;SDS011;8302;51.154;4.456;2024-02-15T07:48:56;4.50;;;2.05;;
16385;SDS011;8302;51.154;4.456;2024-02-15T07:51:24;6.35;;;2.20;;
16385;SDS011;8302;51.154;4.456;2024-02-15T07:53:53;3.42;;;1.48;;
16385;SDS011;8302;51.154;4.456;2024-02-15T07:56:21;4.15;;;2.05;;
16385;SDS011;8302;51.154;4.456;2024-02-15T07:58:49;7.82;;;2.35;;
16385;SDS011;8302;51.154;4.456;2024-02-15T08:01:20;3.38;;;2.28;;
16385;SDS011;8302;51.154;4.456;2024-02-15T08:03:50;5.13;;;2.25;;
16385;SDS011;8302;51.154;4.456;2024-02-15T08:06:21;5.35;;;1.95;;
16385;SDS011;8302;51.154;4.456;2024-02-15T08:08:53;5.22;;;2.20;;
16385;SDS011;8302;51.154;4.456;2024-02-15T08:11:21;4.90;;;2.22;;
16385;SDS011;8302;51.154;4.456;2024-02-15T08:13:50;7.82;;;2.30;;
16385;SDS011;8302;51.154;4.456;2024-02-15T08:16:21;3.42;;;2.13;;
16385;SDS011;8302;51.154;4.456;2024-02-15T08:18:50;4.28;;;2.20;;
16385;SDS011;8302;51.154;4.456;2024-02-15T08:21:19;5.97;;;1.75;;
16385;SDS011;8302;51.154;4.456;2024-02-15T08:23:53;6.25;;;2.55;;
16385;SDS011;8302;51.154;4.456;2024-02-15T08:26:21;6.50;;;2.30;;
16385;SDS011;8302;51.154;4.456;2024-02-15T08:28:49;4.10;;;2.13;;
16385;SDS011;8302;51.154;4.456;2024-02-15T08:31:17;7.40;;;2.67;;
16385;SDS011;8302;51.154;4.456;2024-02-15T08:33:45;7.35;;;2.70;;
16385;SDS011;8302;51.154;4.456;2024-02-15T08:36:13;7.32;;;3.15;;
16385;SDS011;8302;51.154;4.456;2024-02-15T08:38:41;4.78;;;2.50;;
16385;SDS011;8302;51.154;4.456;2024-02-15T08:41:11;6.55;;;2.20;;
16385;SDS011;8302;51.154;4.456;2024-02-15T08:43:39;8.60;;;2.95;;
16385;SDS011;8302;51.154;4.456;2024-02-15T08:46:08;5.50;;;1.67;;
16385;SDS011;8302;51.154;4.456;2024-02-15T08:48:36;5.70;;;2.55;;
16385;SDS011;8302;51.154;4.456;2024-02-15T08:51:04;6.85;;;2.75;;
16385;SDS011;8302;51.154;4.456;2024-02-15T08:53:35;6.68;;;2.47;;
16385;SDS011;8302;51.154;4.456;2024-02-15T08:56:04;7.45;;;3.05;;
16385;SDS011;8302;51.154;4.456;2024-02-15T08:58:34;5.47;;;2.53;;
16385;SDS011;8302;51.154;4.456;2024-02-15T09:01:02;3.78;;;1.75;;
16385;SDS011;8302;51.154;4.456;2024-02-15T09:03:31;4.43;;;2.35;;
16385;SDS011;8302;51.154;4.456;2024-02-15T09:05:58;7.68;;;2.60;;
16385;SDS011;8302;51.154;4.456;2024-02-15T09:08:30;7.20;;;2.75;;
16385;SDS011;8302;51.154;4.456;2024-02-15T09:10:59;6.95;;;2.85;;
16385;SDS011;8302;51.154;4.456;2024-02-15T09:13:27;11.27;;;2.53;;
16385;SDS011;8302;51.154;4.456;2024-02-15T09:15:59;6.88;;;2.53;;
16385;SDS011;8302;51.154;4.456;2024-02-15T09:18:26;6.80;;;3.22;;
16385;SDS011;8302;51.154;4.456;2024-02-15T09:20:54;6.63;;;3.67;;
16385;SDS011;8302;51.154;4.456;2024-02-15T09:23:22;8.20;;;3.30;;
16385;SDS011;8302;51.154;4.456;2024-02-15T09:25:50;5.93;;;2.75;;
16385;SDS011;8302;51.154;4.456;2024-02-15T09:28:19;6.90;;;2.45;;
16385;SDS011;8302;51.154;4.456;2024-02-15T09:30:49;7.82;;;3.28;;
16385;SDS011;8302;51.154;4.456;2024-02-15T09:33:20;8.15;;;3.30;;
16385;SDS011;8302;51.154;4.456;2024-02-15T09:35:48;10.35;;;3.35;;
16385;SDS011;8302;51.154;4.456;2024-02-15T09:38:16;5.15;;;2.25;;
16385;SDS011;8302;51.154;4.456;2024-02-15T09:40:48;7.03;;;3.03;;
16385;SDS011;8302;51.154;4.456;2024-02-15T09:43:16;8.10;;;3.22;;
16385;SDS011;8302;51.154;4.456;2024-02-15T09:45:44;7.40;;;3.20;;
16385;SDS011;8302;51.154;4.456;2024-02-15T09:48:11;7.60;;;3.70;;
16385;SDS011;8302;51.154;4.456;2024-02-15T09:50:42;7.97;;;3.10;;
16385;SDS011;8302;51.154;4.456;2024-02-15T09:53:13;7.07;;;2.75;;
16385;SDS011;8302;51.154;4.456;2024-02-15T09:55:42;8.60;;;2.85;;
16385;SDS011;8302;51.154;4.456;2024-02-15T09:58:10;6.93;;;2.97;;
16385;SDS011;8302;51.154;4.456;2024-02-15T10:00:39;7.90;;;2.85;;
16385;SDS011;8302;51.154;4.456;2024-02-15T10:03:07;6.60;;;3.08;;
16385;SDS011;8302;51.154;4.456;2024-02-15T10:05:35;7.82;;;3.00;;
16385;SDS011;8302;51.154;4.456;2024-02-15T10:08:07;7.15;;;2.70;;
16385;SDS011;8302;51.154;4.456;2024-02-15T10:10:37;7.78;;;2.70;;
16385;SDS011;8302;51.154;4.456;2024-02-15T10:13:05;5.50;;;2.50;;
16385;SDS011;8302;51.154;4.456;2024-02-15T10:15:34;5.40;;;2.90;;
16385;SDS011;8302;51.154;4.456;2024-02-15T10:18:03;4.90;;;2.70;;
16385;SDS011;8302;51.154;4.456;2024-02-15T10:20:31;5.45;;;2.60;;
16385;SDS011;8302;51.154;4.456;2024-02-15T10:23:12;4.53;;;1.73;;
16385;SDS011;8302;51.154;4.456;2024-02-15T10:25:44;4.75;;;1.98;;
16385;SDS011;8302;51.154;4.456;2024-02-15T10:28:12;7.95;;;3.05;;
16385;SDS011;8302;51.154;4.456;2024-02-15T10:30:42;6.13;;;2.60;;
16385;SDS011;8302;51.154;4.456;2024-02-15T10:33:17;5.50;;;2.05;;
16385;SDS011;8302;51.154;4.456;2024-02-15T10:35:46;6.15;;;2.20;;
16385;SDS011;8302;51.154;4.456;2024-02-15T10:38:15;3.55;;;1.85;;
16385;SDS011;8302;51.154;4.456;2024-02-15T10:40:45;5.68;;;2.17;;
16385;SDS011;8302;51.154;4.456;2024-02-15T10:43:13;4.63;;;2.00;;
16385;SDS011;8302;51.154;4.456;2024-02-15T10:45:43;5.07;;;2.47;;
16385;SDS011;8302;51.154;4.456;2024-02-15T10:48:12;6.88;;;2.35;;
16385;SDS011;8302;51.154;4.456;2024-02-15T10:50:40;4.97;;;2.20;;
16385;SDS011;8302;51.154;4.456;2024-02-15T10:53:11;5.97;;;2.45;;
16385;SDS011;8302;51.154;4.456;2024-02-15T10:55:44;5.70;;;2.50;;
16385;SDS011;8302;51.154;4.456;2024-02-15T10:58:16;6.82;;;2.25;;
16385;SDS011;8302;51.154;4.456;2024-02-15T11:00:46;7.53;;;2.33;;
16385;SDS011;8302;51.154;4.456;2024-02-15T11:03:16;6.22;;;2.25;;
16385;SDS011;8302;51.154;4.456;2024-02-15T11:05:45;4.85;;;2.00;;
16385;SDS011;8302;51.154;4.456;2024-02-15T11:08:13;3.95;;;1.98;;
16385;SDS011;8302;51.154;4.456;2024-02-15T11:10:44;4.45;;;1.85;;
16385;SDS011;8302;51.154;4.456;2024-02-15T11:13:14;5.72;;;2.35;;
16385;SDS011;8302;51.154;4.456;2024-02-15T11:15:43;6.53;;;2.13;;
16385;SDS011;8302;51.154;4.456;2024-02-15T11:21:07;6.65;;;2.17;;
16385;SDS011;8302;51.154;4.456;2024-02-15T11:23:35;5.95;;;1.80;;
16385;SDS011;8302;51.154;4.456;2024-02-15T11:26:05;4.93;;;2.10;;
16385;SDS011;8302;51.154;4.456;2024-02-15T11:28:37;3.30;;;1.40;;
16385;SDS011;8302;51.154;4.456;2024-02-15T11:31:09;5.28;;;1.80;;
16385;SDS011;8302;51.154;4.456;2024-02-15T11:33:39;5.60;;;1.83;;
16385;SDS011;8302;51.154;4.456;2024-02-15T11:36:09;3.92;;;1.75;;
16385;SDS011;8302;51.154;4.456;2024-02-15T11:38:38;2.95;;;1.10;;
16385;SDS011;8302;51.154;4.456;2024-02-15T11:41:09;5.72;;;1.27;;
16385;SDS011;8302;51.154;4.456;2024-02-15T11:43:47;3.58;;;1.67;;
16385;SDS011;8302;51.154;4.456;2024-02-15T11:46:24;4.45;;;1.75;;
16385;SDS011;8302;51.154;4.456;2024-02-15T11:48:53;5.65;;;1.60;;
16385;SDS011;8302;51.154;4.456;2024-02-15T11:51:26;4.70;;;1.70;;
16385;SDS011;8302;51.154;4.456;2024-02-15T11:53:58;6.60;;;1.48;;
16385;SDS011;8302;51.154;4.456;2024-02-15T11:56:27;9.15;;;1.77;;
16385;SDS011;8302;51.154;4.456;2024-02-15T11:59:01;3.97;;;1.80;;
16385;SDS011;8302;51.154;4.456;2024-02-15T12:01:31;3.00;;;1.48;;
16385;SDS011;8302;51.154;4.456;2024-02-15T12:04:17;2.80;;;1.40;;
16385;SDS011;8302;51.154;4.456;2024-02-15T12:07:17;5.10;;;2.00;;
16385;SDS011;8302;51.154;4.456;2024-02-15T12:10:03;8.98;;;2.22;;
16385;SDS011;8302;51.154;4.456;2024-02-15T12:12:53;4.07;;;1.60;;
16385;SDS011;8302;51.154;4.456;2024-02-15T12:15:39;4.88;;;1.70;;
16385;SDS011;8302;51.154;4.456;2024-02-15T12:18:43;3.92;;;1.70;;
16385;SDS011;8302;51.154;4.456;2024-02-15T12:21:14;4.13;;;1.58;;
16385;SDS011;8302;51.154;4.456;2024-02-15T12:23:43;2.08;;;1.05;;
16385;SDS011;8302;51.154;4.456;2024-02-15T12:26:12;4.90;;;1.30;;
16385;SDS011;8302;51.154;4.456;2024-02-15T12:28:42;5.38;;;1.40;;
16385;SDS011;8302;51.154;4.456;2024-02-15T12:31:13;3.00;;;1.60;;
16385;SDS011;8302;51.154;4.456;2024-02-15T12:33:41;2.85;;;1.50;;
16385;SDS011;8302;51.154;4.456;2024-02-15T12:36:09;2.88;;;1.35;;
16385;SDS011;8302;51.154;4.456;2024-02-15T12:38:37;3.28;;;1.90;;
16385;SDS011;8302;51.154;4.456;2024-02-15T12:41:16;3.47;;;1.20;;
16385;SDS011;8302;51.154;4.456;2024-02-15T12:43:46;2.85;;;1.35;;
16385;SDS011;8302;51.154;4.456;2024-02-15T12:46:19;1.88;;;1.10;;
16385;SDS011;8302;51.154;4.456;2024-02-15T12:48:48;8.20;;;1.63;;
16385;SDS011;8302;51.154;4.456;2024-02-15T12:51:16;1.42;;;1.00;;
16385;SDS011;8302;51.154;4.456;2024-02-15T12:53:44;4.05;;;1.15;;
16385;SDS011;8302;51.154;4.456;2024-02-15T12:56:19;3.00;;;1.10;;
16385;SDS011;8302;51.154;4.456;2024-02-15T12:58:48;3.15;;;1.40;;
16385;SDS011;8302;51.154;4.456;2024-02-15T13:01:16;4.20;;;1.60;;
16385;SDS011;8302;51.154;4.456;2024-02-15T13:03:44;3.85;;;1.40;;
16385;SDS011;8302;51.154;4.456;2024-02-15T13:06:12;2.15;;;1.33;;
16385;SDS011;8302;51.154;4.456;2024-02-15T13:08:59;4.03;;;1.63;;
16385;SDS011;8302;51.154;4.456;2024-02-15T13:11:26;4.15;;;1.38;;
16385;SDS011;8302;51.154;4.456;2024-02-15T13:13:56;3.67;;;1.27;;
16385;SDS011;8302;51.154;4.456;2024-02-15T13:16:24;4.50;;;1.67;;
16385;SDS011;8302;51.154;4.456;2024-02-15T13:19:09;3.92;;;1.50;;
16385;SDS011;8302;51.154;4.456;2024-02-15T13:21:37;4.85;;;2.10;;
16385;SDS011;8302;51.154;4.456;2024-02-15T13:24:22;7.57;;;1.60;;
16385;SDS011;8302;51.154;4.456;2024-02-15T13:26:53;3.17;;;1.70;;
16385;SDS011;8302;51.154;4.456;2024-02-15T13:29:26;2.65;;;1.50;;
16385;SDS011;8302;51.154;4.456;2024-02-15T13:31:54;6.50;;;1.88;;
16385;SDS011;8302;51.154;4.456;2024-02-15T13:34:22;1.73;;;1.20;;
16385;SDS011;8302;51.154;4.456;2024-02-15T13:36:51;6.10;;;1.35;;
16385;SDS011;8302;51.154;4.456;2024-02-15T13:39:20;2.00;;;1.35;;
16385;SDS011;8302;51.154;4.456;2024-02-15T13:42:05;2.67;;;1.50;;
16385;SDS011;8302;51.154;4.456;2024-02-15T13:44:35;3.72;;;1.20;;
16385;SDS011;8302;51.154;4.456;2024-02-15T13:47:03;1.58;;;0.68;;
16385;SDS011;8302;51.154;4.456;2024-02-15T13:49:48;3.15;;;1.10;;
16385;SDS011;8302;51.154;4.456;2024-02-15T13:52:16;1.98;;;1.30;;
16385;SDS011;8302;51.154;4.456;2024-02-15T13:54:45;5.22;;;1.40;;
16385;SDS011;8302;51.154;4.456;2024-02-15T13:57:13;2.85;;;1.35;;
16385;SDS011;8302;51.154;4.456;2024-02-15T13:59:42;3.22;;;1.38;;
16385;SDS011;8302;51.154;4.456;2024-02-15T14:02:37;3.67;;;1.20;;
16385;SDS011;8302;51.154;4.456;2024-02-15T14:05:05;3.90;;;1.17;;
16385;SDS011;8302;51.154;4.456;2024-02-15T14:07:52;1.60;;;1.23;;
16385;SDS011;8302;51.154;4.456;2024-02-15T14:10:21;3.78;;;1.75;;
16385;SDS011;8302;51.154;4.456;2024-02-15T14:12:51;1.90;;;1.00;;
16385;SDS011;8302;51.154;4.456;2024-02-15T14:15:38;7.63;;;1.40;;
16385;SDS011;8302;51.154;4.456;2024-02-15T14:18:07;5.18;;;1.00;;
16385;SDS011;8302;51.154;4.456;2024-02-15T14:20:37;3.63;;;1.27;;
16385;SDS011;8302;51.154;4.456;2024-02-15T14:23:05;1.58;;;0.95;;
16385;SDS011;8302;51.154;4.456;2024-02-15T14:25:41;3.20;;;1.38;;
16385;SDS011;8302;51.154;4.456;2024-02-15T14:28:09;5.00;;;1.17;;
16385;SDS011;8302;51.154;4.456;2024-02-15T14:30:39;4.65;;;1.50;;
16385;SDS011;8302;51.154;4.456;2024-02-15T14:33:24;2.53;;;1.10;;
16385;SDS011;8302;51.154;4.456;2024-02-15T14:36:00;2.50;;;1.00;;
16385;SDS011;8302;51.154;4.456;2024-02-15T14:41:15;3.15;;;1.20;;
16385;SDS011;8302;51.154;4.456;2024-02-15T14:43:58;2.92;;;1.00;;
16385;SDS011;8302;51.154;4.456;2024-02-15T14:46:27;2.00;;;0.80;;
16385;SDS011;8302;51.154;4.456;2024-02-15T14:48:56;3.10;;;1.33;;
16385;SDS011;8302;51.154;4.456;2024-02-15T14:51:24;4.22;;;1.10;;
16385;SDS011;8302;51.154;4.456;2024-02-15T14:53:53;2.83;;;1.10;;
16385;SDS011;8302;51.154;4.456;2024-02-15T14:59:08;4.60;;;1.10;;
16385;SDS011;8302;51.154;4.456;2024-02-15T15:01:38;1.98;;;1.30;;
16385;SDS011;8302;51.154;4.456;2024-02-15T15:04:07;3.17;;;1.20;;
16385;SDS011;8302;51.154;4.456;2024-02-15T15:06:36;2.40;;;1.30;;
16385;SDS011;8302;51.154;4.456;2024-02-15T15:09:21;3.78;;;1.60;;
16385;SDS011;8302;51.154;4.456;2024-02-15T15:12:07;5.28;;;1.73;;
16385;SDS011;8302;51.154;4.456;2024-02-15T15:14:52;2.58;;;1.15;;
16385;SDS011;8302;51.154;4.456;2024-02-15T15:17:23;2.38;;;1.15;;
16385;SDS011;8302;51.154;4.456;2024-02-15T15:19:53;3.13;;;1.30;;
16385;SDS011;8302;51.154;4.456;2024-02-15T15:22:21;2.80;;;1.33;;
16385;SDS011;8302;51.154;4.456;2024-02-15T15:24:50;2.63;;;1.10;;
16385;SDS011;8302;51.154;4.456;2024-02-15T15:27:18;3.25;;;1.20;;